sensor_id;sensor_type;location;lat;lon;timestamp;P1;durP1;ratioP1;P2;durP2;ratioP2
17784;SDS011;9016;53.582;10.062;2023-02-01T00:00:17;21.17;;;5.23;;
17784;SDS011;9016;53.582;10.062;2023-02-01T00:02:46;18.77;;;5.00;;
17784;SDS011;9016;53.582;10.062;2023-02-01T00:05:14;25.40;;;5.77;;
17784;SDS011;9016;53.582;10.062;2023-02-01T00:07:42;25.67;;;6.27;;
17784;SDS011;9016;53.582;10.062;2023-02-01T00:10:14;24.63;;;5.70;;
17784;SDS011;9016;53.582;10.062;2023-02-01T00:12:42;24.07;;;5.50;;
17784;SDS011;9016;53.582;10.062;2023-02-01T00:15:10;29.10;;;6.63;;
17784;SDS011;9016;53.582;10.062;2023-02-01T00:17:39;25.10;;;5.57;;
17784;SDS011;9016;53.582;10.062;2023-02-01T00:20:08;25.70;;;6.17;;
17784;SDS011;9016;53.582;10.062;2023-02-01T00:22:37;28.27;;;6.33;;
17784;SDS011;9016;53.582;10.062;2023-02-01T00:25:05;22.10;;;5.37;;
17784;SDS011;9016;53.582;10.062;2023-02-01T00:27:34;27.43;;;6.93;;
17784;SDS011;9016;53.582;10.062;2023-02-01T00:30:02;28.70;;;6.23;;
17784;SDS011;9016;53.582;10.062;2023-02-01T00:32:30;24.77;;;5.57;;
17784;SDS011;9016;53.582;10.062;2023-02-01T00:35:00;25.27;;;6.20;;
17784;SDS011;9016;53.582;10.062;2023-02-01T00:37:28;21.93;;;6.00;;
17784;SDS011;9016;53.582;10.062;2023-02-01T00:39:56;25.07;;;5.60;;
17784;SDS011;9016;53.582;10.062;2023-02-01T00:42:24;27.57;;;6.60;;
17784;SDS011;9016;53.582;10.062;2023-02-01T00:44:52;27.30;;;5.73;;
17784;SDS011;9016;53.582;10.062;2023-02-01T00:47:20;24.20;;;5.30;;
17784;SDS011;9016;53.582;10.062;2023-02-01T00:49:48;25.33;;;6.13;;
17784;SDS011;9016;53.582;10.062;2023-02-01T00:52:17;23.00;;;5.77;;
17784;SDS011;9016;53.582;10.062;2023-02-01T00:54:45;29.77;;;6.90;;
17784;SDS011;9016;53.582;10.062;2023-02-01T00:57:13;29.17;;;7.00;;
17784;SDS011;9016;53.582;10.062;2023-02-01T00:59:41;26.90;;;6.70;;
17784;SDS011;9016;53.582;10.062;2023-02-01T01:02:09;26.20;;;6.50;;
17784;SDS011;9016;53.582;10.062;2023-02-01T01:04:40;29.50;;;6.70;;
17784;SDS011;9016;53.582;10.062;2023-02-01T01:07:08;29.07;;;6.87;;
17784;SDS011;9016;53.582;10.062;2023-02-01T01:09:37;26.07;;;7.13;;
17784;SDS011;9016;53.582;10.062;2023-02-01T01:12:05;28.20;;;6.43;;
17784;SDS011;9016;53.582;10.062;2023-02-01T01:14:33;22.00;;;6.50;;
17784;SDS011;9016;53.582;10.062;2023-02-01T01:17:01;27.43;;;6.93;;
17784;SDS011;9016;53.582;10.062;2023-02-01T01:19:29;29.17;;;7.93;;
17784;SDS011;9016;53.582;10.062;2023-02-01T01:21:57;31.43;;;7.40;;
17784;SDS011;9016;53.582;10.062;2023-02-01T01:24:25;27.90;;;6.77;;
17784;SDS011;9016;53.582;10.062;2023-02-01T01:26:54;30.13;;;7.10;;
17784;SDS011;9016;53.582;10.062;2023-02-01T01:29:22;30.27;;;6.87;;
17784;SDS011;9016;53.582;10.062;2023-02-01T01:31:50;29.90;;;6.60;;
17784;SDS011;9016;53.582;10.062;2023-02-01T01:34:18;32.43;;;7.13;;
17784;SDS011;9016;53.582;10.062;2023-02-01T01:36:46;29.80;;;7.03;;
17784;SDS011;9016;53.582;10.062;2023-02-01T01:39:14;33.40;;;7.30;;
17784;SDS011;9016;53.582;10.062;2023-02-01T01:41:42;30.67;;;7.67;;
17784;SDS011;9016;53.582;10.062;2023-02-01T01:47:13;31.23;;;7.10;;
17784;SDS011;9016;53.582;10.062;2023-02-01T01:49:43;31.73;;;6.83;;
17784;SDS011;9016;53.582;10.062;2023-02-01T01:52:11;28.67;;;6.67;;
17784;SDS011;9016;53.582;10.062;2023-02-01T01:54:40;32.70;;;7.70;;
17784;SDS011;9016;53.582;10.062;2023-02-01T01:57:14;31.03;;;7.37;;
17784;SDS011;9016;53.582;10.062;2023-02-01T01:59:46;28.30;;;6.43;;
17784;SDS011;9016;53.582;10.062;2023-02-01T02:02:21;30.67;;;6.80;;
17784;SDS011;9016;53.582;10.062;2023-02-01T02:04:51;28.33;;;6.87;;
17784;SDS011;9016;53.582;10.062;2023-02-01T02:07:20;34.43;;;7.43;;
17784;SDS011;9016;53.582;10.062;2023-02-01T02:09:53;38.30;;;7.57;;
17784;SDS011;9016;53.582;10.062;2023-02-01T02:12:26;32.57;;;7.47;;
17784;SDS011;9016;53.582;10.062;2023-02-01T02:14:54;27.77;;;6.43;;
17784;SDS011;9016;53.582;10.062;2023-02-01T02:17:30;28.13;;;6.70;;
17784;SDS011;9016;53.582;10.062;2023-02-01T02:25:57;28.10;;;7.00;;
17784;SDS011;9016;53.582;10.062;2023-02-01T02:35:16;30.30;;;6.10;;
17784;SDS011;9016;53.582;10.062;2023-02-01T02:37:55;32.60;;;7.17;;
17784;SDS011;9016;53.582;10.062;2023-02-01T02:40:34;33.97;;;6.93;;
17784;SDS011;9016;53.582;10.062;2023-02-01T02:43:09;30.87;;;6.83;;
17784;SDS011;9016;53.582;10.062;2023-02-01T02:46:00;31.10;;;7.60;;
17784;SDS011;9016;53.582;10.062;2023-02-01T02:48:57;34.37;;;7.03;;
17784;SDS011;9016;53.582;10.062;2023-02-01T02:51:32;32.20;;;7.20;;
17784;SDS011;9016;53.582;10.062;2023-02-01T02:54:23;34.30;;;7.87;;
17784;SDS011;9016;53.582;10.062;2023-02-01T02:57:16;34.37;;;6.97;;
17784;SDS011;9016;53.582;10.062;2023-02-01T03:00:05;29.20;;;7.00;;
17784;SDS011;9016;53.582;10.062;2023-02-01T03:02:54;29.47;;;6.80;;
17784;SDS011;9016;53.582;10.062;2023-02-01T03:05:41;28.17;;;6.23;;
17784;SDS011;9016;53.582;10.062;2023-02-01T03:08:13;24.63;;;6.17;;
17784;SDS011;9016;53.582;10.062;2023-02-01T03:10:50;32.80;;;7.13;;
17784;SDS011;9016;53.582;10.062;2023-02-01T03:13:31;28.67;;;6.77;;
17784;SDS011;9016;53.582;10.062;2023-02-01T03:16:04;35.20;;;7.67;;
17784;SDS011;9016;53.582;10.062;2023-02-01T03:18:41;30.30;;;6.90;;
17784;SDS011;9016;53.582;10.062;2023-02-01T03:21:17;30.77;;;7.10;;
17784;SDS011;9016;53.582;10.062;2023-02-01T03:23:53;33.73;;;6.97;;
17784;SDS011;9016;53.582;10.062;2023-02-01T03:26:25;30.07;;;6.73;;
17784;SDS011;9016;53.582;10.062;2023-02-01T03:28:57;30.03;;;6.47;;
17784;SDS011;9016;53.582;10.062;2023-02-01T03:31:30;30.37;;;6.63;;
17784;SDS011;9016;53.582;10.062;2023-02-01T03:33:58;29.27;;;7.03;;
17784;SDS011;9016;53.582;10.062;2023-02-01T03:36:29;24.43;;;6.20;;
17784;SDS011;9016;53.582;10.062;2023-02-01T03:39:02;22.53;;;5.60;;
17784;SDS011;9016;53.582;10.062;2023-02-01T03:41:35;21.53;;;4.57;;
17784;SDS011;9016;53.582;10.062;2023-02-01T03:44:09;18.10;;;4.37;;
17784;SDS011;9016;53.582;10.062;2023-02-01T03:46:41;20.07;;;4.57;;
17784;SDS011;9016;53.582;10.062;2023-02-01T03:49:16;16.23;;;4.20;;
17784;SDS011;9016;53.582;10.062;2023-02-01T03:51:49;18.53;;;4.50;;
17784;SDS011;9016;53.582;10.062;2023-02-01T03:54:20;15.77;;;4.83;;
17784;SDS011;9016;53.582;10.062;2023-02-01T03:56:48;21.97;;;5.33;;
17784;SDS011;9016;53.582;10.062;2023-02-01T03:59:19;18.47;;;4.33;;
17784;SDS011;9016;53.582;10.062;2023-02-01T04:01:47;21.50;;;4.50;;
17784;SDS011;9016;53.582;10.062;2023-02-01T04:04:15;16.20;;;4.40;;
17784;SDS011;9016;53.582;10.062;2023-02-01T04:06:46;19.53;;;4.60;;
17784;SDS011;9016;53.582;10.062;2023-02-01T04:09:14;24.47;;;4.77;;
17784;SDS011;9016;53.582;10.062;2023-02-01T04:11:43;22.07;;;5.30;;
17784;SDS011;9016;53.582;10.062;2023-02-01T04:14:11;22.83;;;5.17;;
17784;SDS011;9016;53.582;10.062;2023-02-01T04:16:39;17.33;;;4.60;;
17784;SDS011;9016;53.582;10.062;2023-02-01T04:19:07;19.17;;;5.20;;
17784;SDS011;9016;53.582;10.062;2023-02-01T04:21:36;20.80;;;5.20;;
17784;SDS011;9016;53.582;10.062;2023-02-01T04:24:04;23.23;;;4.93;;
17784;SDS011;9016;53.582;10.062;2023-02-01T04:26:33;22.20;;;4.80;;
17784;SDS011;9016;53.582;10.062;2023-02-01T04:29:02;15.00;;;4.87;;
17784;SDS011;9016;53.582;10.062;2023-02-01T04:31:31;22.23;;;4.70;;
17784;SDS011;9016;53.582;10.062;2023-02-01T04:34:00;20.63;;;4.57;;
17784;SDS011;9016;53.582;10.062;2023-02-01T04:36:28;17.03;;;4.20;;
17784;SDS011;9016;53.582;10.062;2023-02-01T04:38:56;21.43;;;4.67;;
17784;SDS011;9016;53.582;10.062;2023-02-01T04:41:24;17.93;;;4.50;;
17784;SDS011;9016;53.582;10.062;2023-02-01T04:43:52;21.27;;;4.80;;
17784;SDS011;9016;53.582;10.062;2023-02-01T04:46:22;16.47;;;4.10;;
17784;SDS011;9016;53.582;10.062;2023-02-01T04:48:50;18.73;;;4.10;;
17784;SDS011;9016;53.582;10.062;2023-02-01T04:51:18;19.03;;;4.13;;
17784;SDS011;9016;53.582;10.062;2023-02-01T04:53:46;14.83;;;3.67;;
17784;SDS011;9016;53.582;10.062;2023-02-01T04:56:14;18.83;;;4.37;;
17784;SDS011;9016;53.582;10.062;2023-02-01T04:58:43;17.37;;;3.73;;
17784;SDS011;9016;53.582;10.062;2023-02-01T05:01:11;16.13;;;3.70;;
17784;SDS011;9016;53.582;10.062;2023-02-01T05:03:40;16.77;;;3.37;;
17784;SDS011;9016;53.582;10.062;2023-02-01T05:06:08;17.17;;;3.97;;
17784;SDS011;9016;53.582;10.062;2023-02-01T05:08:36;7.20;;;2.83;;
17784;SDS011;9016;53.582;10.062;2023-02-01T05:11:04;8.23;;;2.53;;
17784;SDS011;9016;53.582;10.062;2023-02-01T05:13:53;10.97;;;2.93;;
17784;SDS011;9016;53.582;10.062;2023-02-01T05:16:20;7.67;;;2.00;;
17784;SDS011;9016;53.582;10.062;2023-02-01T05:18:50;5.77;;;1.90;;
17784;SDS011;9016;53.582;10.062;2023-02-01T05:21:18;3.67;;;1.50;;
17784;SDS011;9016;53.582;10.062;2023-02-01T05:23:46;3.27;;;1.30;;
17784;SDS011;9016;53.582;10.062;2023-02-01T05:26:31;3.93;;;1.60;;
17784;SDS011;9016;53.582;10.062;2023-02-01T05:29:00;4.43;;;1.53;;
17784;SDS011;9016;53.582;10.062;2023-02-01T05:31:28;2.93;;;1.60;;
17784;SDS011;9016;53.582;10.062;2023-02-01T05:33:57;2.17;;;1.50;;
17784;SDS011;9016;53.582;10.062;2023-02-01T05:36:25;3.17;;;1.60;;
17784;SDS011;9016;53.582;10.062;2023-02-01T05:38:53;3.23;;;1.50;;
17784;SDS011;9016;53.582;10.062;2023-02-01T05:41:22;2.10;;;1.20;;
17784;SDS011;9016;53.582;10.062;2023-02-01T05:43:49;3.43;;;1.30;;
17784;SDS011;9016;53.582;10.062;2023-02-01T05:46:18;3.80;;;1.80;;
17784;SDS011;9016;53.582;10.062;2023-02-01T05:48:46;3.07;;;1.53;;
17784;SDS011;9016;53.582;10.062;2023-02-01T05:51:15;4.37;;;1.60;;
17784;SDS011;9016;53.582;10.062;2023-02-01T05:53:43;3.27;;;1.20;;
17784;SDS011;9016;53.582;10.062;2023-02-01T05:56:11;3.30;;;1.20;;
17784;SDS011;9016;53.582;10.062;2023-02-01T05:58:39;3.97;;;1.33;;
17784;SDS011;9016;53.582;10.062;2023-02-01T06:01:07;3.40;;;1.30;;
17784;SDS011;9016;53.582;10.062;2023-02-01T06:03:35;1.93;;;1.10;;
17784;SDS011;9016;53.582;10.062;2023-02-01T06:06:03;1.87;;;1.00;;
17784;SDS011;9016;53.582;10.062;2023-02-01T06:08:33;3.07;;;1.17;;
17784;SDS011;9016;53.582;10.062;2023-02-01T06:11:02;2.23;;;1.00;;
17784;SDS011;9016;53.582;10.062;2023-02-01T06:13:31;4.27;;;1.27;;
17784;SDS011;9016;53.582;10.062;2023-02-01T06:16:00;2.10;;;1.00;;
17784;SDS011;9016;53.582;10.062;2023-02-01T06:18:29;2.10;;;1.37;;
17784;SDS011;9016;53.582;10.062;2023-02-01T06:20:58;4.27;;;1.37;;
17784;SDS011;9016;53.582;10.062;2023-02-01T06:23:27;3.83;;;1.33;;
17784;SDS011;9016;53.582;10.062;2023-02-01T06:25:59;4.67;;;1.43;;
17784;SDS011;9016;53.582;10.062;2023-02-01T06:28:29;4.57;;;1.53;;
17784;SDS011;9016;53.582;10.062;2023-02-01T06:31:02;4.13;;;1.67;;
17784;SDS011;9016;53.582;10.062;2023-02-01T06:33:33;5.10;;;1.80;;
17784;SDS011;9016;53.582;10.062;2023-02-01T06:36:02;4.47;;;2.30;;
17784;SDS011;9016;53.582;10.062;2023-02-01T06:38:32;7.03;;;2.40;;
17784;SDS011;9016;53.582;10.062;2023-02-01T06:41:03;6.30;;;2.00;;
17784;SDS011;9016;53.582;10.062;2023-02-01T06:43:31;6.50;;;1.93;;
17784;SDS011;9016;53.582;10.062;2023-02-01T06:46:00;9.43;;;2.60;;
17784;SDS011;9016;53.582;10.062;2023-02-01T06:48:29;6.93;;;2.10;;
17784;SDS011;9016;53.582;10.062;2023-02-01T06:50:58;8.83;;;2.70;;
17784;SDS011;9016;53.582;10.062;2023-02-01T06:53:26;9.20;;;2.20;;
17784;SDS011;9016;53.582;10.062;2023-02-01T06:55:54;9.93;;;2.70;;
17784;SDS011;9016;53.582;10.062;2023-02-01T06:58:27;10.50;;;2.90;;
17784;SDS011;9016;53.582;10.062;2023-02-01T07:00:56;7.03;;;2.47;;
17784;SDS011;9016;53.582;10.062;2023-02-01T07:03:24;11.20;;;2.77;;
17784;SDS011;9016;53.582;10.062;2023-02-01T07:05:54;12.37;;;3.50;;
17784;SDS011;9016;53.582;10.062;2023-02-01T07:08:25;15.43;;;3.23;;
17784;SDS011;9016;53.582;10.062;2023-02-01T07:10:54;14.27;;;3.27;;
17784;SDS011;9016;53.582;10.062;2023-02-01T07:13:22;11.07;;;3.17;;
17784;SDS011;9016;53.582;10.062;2023-02-01T07:15:51;14.73;;;3.73;;
17784;SDS011;9016;53.582;10.062;2023-02-01T07:18:19;14.97;;;3.87;;
17784;SDS011;9016;53.582;10.062;2023-02-01T07:20:49;14.07;;;4.13;;
17784;SDS011;9016;53.582;10.062;2023-02-01T07:23:17;10.80;;;3.23;;
17784;SDS011;9016;53.582;10.062;2023-02-01T07:25:46;13.80;;;3.73;;
17784;SDS011;9016;53.582;10.062;2023-02-01T07:28:14;18.40;;;4.47;;
17784;SDS011;9016;53.582;10.062;2023-02-01T07:30:43;17.77;;;4.60;;
17784;SDS011;9016;53.582;10.062;2023-02-01T07:33:19;19.70;;;4.53;;
17784;SDS011;9016;53.582;10.062;2023-02-01T07:35:52;19.53;;;4.80;;
17784;SDS011;9016;53.582;10.062;2023-02-01T07:38:20;20.37;;;4.60;;
17784;SDS011;9016;53.582;10.062;2023-02-01T07:40:50;21.73;;;5.60;;
17784;SDS011;9016;53.582;10.062;2023-02-01T07:43:17;15.67;;;4.40;;
17784;SDS011;9016;53.582;10.062;2023-02-01T07:45:50;21.37;;;4.80;;
17784;SDS011;9016;53.582;10.062;2023-02-01T07:48:24;17.37;;;4.20;;
17784;SDS011;9016;53.582;10.062;2023-02-01T07:50:59;14.90;;;4.10;;
17784;SDS011;9016;53.582;10.062;2023-02-01T07:53:29;15.07;;;4.13;;
17784;SDS011;9016;53.582;10.062;2023-02-01T07:55:58;18.47;;;4.47;;
17784;SDS011;9016;53.582;10.062;2023-02-01T07:58:26;20.33;;;4.50;;
17784;SDS011;9016;53.582;10.062;2023-02-01T08:00:54;21.63;;;5.30;;
17784;SDS011;9016;53.582;10.062;2023-02-01T08:03:41;23.23;;;5.37;;
17784;SDS011;9016;53.582;10.062;2023-02-01T08:06:09;29.87;;;6.70;;
17784;SDS011;9016;53.582;10.062;2023-02-01T08:08:37;30.43;;;7.53;;
17784;SDS011;9016;53.582;10.062;2023-02-01T08:11:05;37.70;;;10.67;;
17784;SDS011;9016;53.582;10.062;2023-02-01T08:13:34;28.33;;;6.40;;
17784;SDS011;9016;53.582;10.062;2023-02-01T08:16:03;33.47;;;6.30;;
17784;SDS011;9016;53.582;10.062;2023-02-01T08:18:32;30.97;;;6.33;;
17784;SDS011;9016;53.582;10.062;2023-02-01T08:21:04;28.90;;;6.20;;
17784;SDS011;9016;53.582;10.062;2023-02-01T08:23:32;26.33;;;7.00;;
17784;SDS011;9016;53.582;10.062;2023-02-01T08:26:05;29.20;;;7.17;;
17784;SDS011;9016;53.582;10.062;2023-02-01T08:28:34;26.17;;;7.47;;
17784;SDS011;9016;53.582;10.062;2023-02-01T08:31:04;26.90;;;6.57;;
17784;SDS011;9016;53.582;10.062;2023-02-01T08:33:33;37.57;;;7.20;;
17784;SDS011;9016;53.582;10.062;2023-02-01T08:36:03;25.10;;;5.80;;
17784;SDS011;9016;53.582;10.062;2023-02-01T08:38:34;25.53;;;6.00;;
17784;SDS011;9016;53.582;10.062;2023-02-01T08:41:05;25.17;;;6.27;;
17784;SDS011;9016;53.582;10.062;2023-02-01T08:43:35;27.90;;;6.60;;
17784;SDS011;9016;53.582;10.062;2023-02-01T08:46:03;25.10;;;5.87;;
17784;SDS011;9016;53.582;10.062;2023-02-01T08:48:31;15.57;;;4.57;;
17784;SDS011;9016;53.582;10.062;2023-02-01T08:51:01;17.03;;;4.10;;
17784;SDS011;9016;53.582;10.062;2023-02-01T08:53:31;22.23;;;5.20;;
17784;SDS011;9016;53.582;10.062;2023-02-01T08:55:59;13.83;;;4.13;;
17784;SDS011;9016;53.582;10.062;2023-02-01T08:58:28;20.70;;;4.90;;
17784;SDS011;9016;53.582;10.062;2023-02-01T09:00:55;18.93;;;4.30;;
17784;SDS011;9016;53.582;10.062;2023-02-01T09:03:23;16.40;;;4.77;;
17784;SDS011;9016;53.582;10.062;2023-02-01T09:05:59;20.93;;;5.07;;
17784;SDS011;9016;53.582;10.062;2023-02-01T09:08:27;20.50;;;5.33;;
17784;SDS011;9016;53.582;10.062;2023-02-01T09:10:59;21.60;;;5.80;;
17784;SDS011;9016;53.582;10.062;2023-02-01T09:13:28;27.67;;;6.67;;
17784;SDS011;9016;53.582;10.062;2023-02-01T09:15:57;25.20;;;7.37;;
17784;SDS011;9016;53.582;10.062;2023-02-01T09:18:26;25.43;;;6.80;;
17784;SDS011;9016;53.582;10.062;2023-02-01T09:20:54;26.70;;;6.10;;
17784;SDS011;9016;53.582;10.062;2023-02-01T09:23:22;26.07;;;5.80;;
17784;SDS011;9016;53.582;10.062;2023-02-01T09:25:50;23.07;;;5.90;;
17784;SDS011;9016;53.582;10.062;2023-02-01T09:28:19;27.47;;;6.13;;
17784;SDS011;9016;53.582;10.062;2023-02-01T09:30:47;24.20;;;7.13;;
17784;SDS011;9016;53.582;10.062;2023-02-01T09:33:16;24.67;;;6.07;;
17784;SDS011;9016;53.582;10.062;2023-02-01T09:35:44;22.87;;;5.80;;
17784;SDS011;9016;53.582;10.062;2023-02-01T09:38:12;30.17;;;6.50;;
17784;SDS011;9016;53.582;10.062;2023-02-01T09:40:40;21.33;;;6.30;;
17784;SDS011;9016;53.582;10.062;2023-02-01T09:43:17;26.97;;;5.93;;
17784;SDS011;9016;53.582;10.062;2023-02-01T09:45:56;24.23;;;6.30;;
17784;SDS011;9016;53.582;10.062;2023-02-01T09:48:31;28.40;;;6.33;;
17784;SDS011;9016;53.582;10.062;2023-02-01T09:51:02;28.70;;;6.40;;
17784;SDS011;9016;53.582;10.062;2023-02-01T09:53:34;22.77;;;5.33;;
17784;SDS011;9016;53.582;10.062;2023-02-01T09:56:06;26.30;;;5.93;;
17784;SDS011;9016;53.582;10.062;2023-02-01T09:58:42;27.30;;;6.03;;
17784;SDS011;9016;53.582;10.062;2023-02-01T10:01:15;24.40;;;5.93;;
17784;SDS011;9016;53.582;10.062;2023-02-01T10:03:46;22.80;;;5.97;;
17784;SDS011;9016;53.582;10.062;2023-02-01T10:09:10;25.13;;;5.87;;
17784;SDS011;9016;53.582;10.062;2023-02-01T10:11:51;22.83;;;5.70;;
17784;SDS011;9016;53.582;10.062;2023-02-01T10:14:36;25.70;;;6.00;;
17784;SDS011;9016;53.582;10.062;2023-02-01T10:17:19;22.20;;;6.87;;
17784;SDS011;9016;53.582;10.062;2023-02-01T10:19:56;24.17;;;7.00;;
17784;SDS011;9016;53.582;10.062;2023-02-01T10:22:38;23.33;;;5.83;;
17784;SDS011;9016;53.582;10.062;2023-02-01T10:25:31;26.33;;;5.93;;
17784;SDS011;9016;53.582;10.062;2023-02-01T10:28:04;26.63;;;6.60;;
17784;SDS011;9016;53.582;10.062;2023-02-01T10:30:36;17.93;;;5.20;;
17784;SDS011;9016;53.582;10.062;2023-02-01T10:33:13;27.77;;;7.40;;
17784;SDS011;9016;53.582;10.062;2023-02-01T10:35:44;22.17;;;6.00;;
17784;SDS011;9016;53.582;10.062;2023-02-01T10:38:16;20.33;;;5.23;;
17784;SDS011;9016;53.582;10.062;2023-02-01T10:40:52;23.63;;;5.20;;
17784;SDS011;9016;53.582;10.062;2023-02-01T10:43:23;19.80;;;5.87;;
17784;SDS011;9016;53.582;10.062;2023-02-01T10:45:52;24.87;;;6.27;;
17784;SDS011;9016;53.582;10.062;2023-02-01T10:48:20;22.63;;;4.77;;
17784;SDS011;9016;53.582;10.062;2023-02-01T10:50:49;24.27;;;5.63;;
17784;SDS011;9016;53.582;10.062;2023-02-01T10:53:24;24.40;;;5.53;;
17784;SDS011;9016;53.582;10.062;2023-02-01T10:55:57;27.93;;;5.50;;
17784;SDS011;9016;53.582;10.062;2023-02-01T10:58:26;17.80;;;5.50;;
17784;SDS011;9016;53.582;10.062;2023-02-01T11:00:57;22.47;;;5.10;;
17784;SDS011;9016;53.582;10.062;2023-02-01T11:03:39;23.43;;;5.60;;
17784;SDS011;9016;53.582;10.062;2023-02-01T11:06:13;25.33;;;5.60;;
17784;SDS011;9016;53.582;10.062;2023-02-01T11:08:47;21.43;;;5.40;;
17784;SDS011;9016;53.582;10.062;2023-02-01T11:11:16;20.63;;;5.33;;
17784;SDS011;9016;53.582;10.062;2023-02-01T11:13:51;23.27;;;5.70;;
17784;SDS011;9016;53.582;10.062;2023-02-01T11:16:28;26.20;;;6.60;;
17784;SDS011;9016;53.582;10.062;2023-02-01T11:19:00;25.80;;;6.70;;
17784;SDS011;9016;53.582;10.062;2023-02-01T11:21:28;19.67;;;5.57;;
17784;SDS011;9016;53.582;10.062;2023-02-01T11:23:59;24.37;;;6.03;;
17784;SDS011;9016;53.582;10.062;2023-02-01T11:26:29;26.73;;;5.83;;
17784;SDS011;9016;53.582;10.062;2023-02-01T11:29:00;19.27;;;5.33;;
17784;SDS011;9016;53.582;10.062;2023-02-01T11:31:33;24.10;;;6.13;;
17784;SDS011;9016;53.582;10.062;2023-02-01T11:34:05;23.87;;;5.77;;
17784;SDS011;9016;53.582;10.062;2023-02-01T11:36:36;26.23;;;6.03;;
17784;SDS011;9016;53.582;10.062;2023-02-01T11:39:10;18.73;;;4.80;;
17784;SDS011;9016;53.582;10.062;2023-02-01T11:41:55;24.57;;;5.57;;
17784;SDS011;9016;53.582;10.062;2023-02-01T11:44:30;27.47;;;6.10;;
17784;SDS011;9016;53.582;10.062;2023-02-01T11:47:22;23.17;;;5.30;;
17784;SDS011;9016;53.582;10.062;2023-02-01T11:49:52;27.90;;;5.87;;
17784;SDS011;9016;53.582;10.062;2023-02-01T11:52:26;18.37;;;5.20;;
17784;SDS011;9016;53.582;10.062;2023-02-01T11:55:10;21.13;;;5.43;;
17784;SDS011;9016;53.582;10.062;2023-02-01T11:57:50;21.90;;;5.30;;
17784;SDS011;9016;53.582;10.062;2023-02-01T12:00:38;22.40;;;5.73;;
17784;SDS011;9016;53.582;10.062;2023-02-01T12:06:30;15.50;;;4.20;;
17784;SDS011;9016;53.582;10.062;2023-02-01T12:09:09;14.67;;;4.77;;
17784;SDS011;9016;53.582;10.062;2023-02-01T12:11:50;10.77;;;3.17;;
17784;SDS011;9016;53.582;10.062;2023-02-01T12:14:35;12.13;;;3.70;;
17784;SDS011;9016;53.582;10.062;2023-02-01T12:17:18;10.70;;;3.67;;
17784;SDS011;9016;53.582;10.062;2023-02-01T12:20:10;11.53;;;3.40;;
17784;SDS011;9016;53.582;10.062;2023-02-01T12:22:51;12.27;;;3.90;;
17784;SDS011;9016;53.582;10.062;2023-02-01T12:25:33;12.80;;;3.73;;
17784;SDS011;9016;53.582;10.062;2023-02-01T12:31:15;12.63;;;4.17;;
17784;SDS011;9016;53.582;10.062;2023-02-01T12:34:00;14.80;;;4.03;;
17784;SDS011;9016;53.582;10.062;2023-02-01T12:36:41;10.37;;;3.60;;
17784;SDS011;9016;53.582;10.062;2023-02-01T12:39:17;8.80;;;2.90;;
17784;SDS011;9016;53.582;10.062;2023-02-01T12:41:53;14.07;;;4.43;;
17784;SDS011;9016;53.582;10.062;2023-02-01T12:44:28;9.20;;;2.53;;
17784;SDS011;9016;53.582;10.062;2023-02-01T12:47:04;6.33;;;2.47;;
17784;SDS011;9016;53.582;10.062;2023-02-01T12:49:41;7.30;;;2.77;;
17784;SDS011;9016;53.582;10.062;2023-02-01T12:52:19;7.30;;;2.43;;
17784;SDS011;9016;53.582;10.062;2023-02-01T12:54:53;3.77;;;1.87;;
17784;SDS011;9016;53.582;10.062;2023-02-01T12:57:27;3.53;;;1.90;;
17784;SDS011;9016;53.582;10.062;2023-02-01T13:00:01;2.73;;;1.43;;
17784;SDS011;9016;53.582;10.062;2023-02-01T13:02:38;2.70;;;1.57;;
17784;SDS011;9016;53.582;10.062;2023-02-01T13:05:15;3.43;;;1.50;;
17784;SDS011;9016;53.582;10.062;2023-02-01T13:07:47;4.10;;;1.40;;
17784;SDS011;9016;53.582;10.062;2023-02-01T13:10:21;3.83;;;1.40;;
17784;SDS011;9016;53.582;10.062;2023-02-01T13:12:57;3.07;;;1.40;;
17784;SDS011;9016;53.582;10.062;2023-02-01T13:15:30;3.13;;;1.50;;
17784;SDS011;9016;53.582;10.062;2023-02-01T13:18:05;3.47;;;1.40;;
17784;SDS011;9016;53.582;10.062;2023-02-01T13:20:36;3.07;;;1.40;;
17784;SDS011;9016;53.582;10.062;2023-02-01T13:23:14;3.93;;;1.27;;
17784;SDS011;9016;53.582;10.062;2023-02-01T13:25:50;4.27;;;1.40;;
17784;SDS011;9016;53.582;10.062;2023-02-01T13:28:23;2.33;;;1.40;;
17784;SDS011;9016;53.582;10.062;2023-02-01T13:31:00;2.37;;;1.57;;
17784;SDS011;9016;53.582;10.062;2023-02-01T13:33:55;1.87;;;1.27;;
17784;SDS011;9016;53.582;10.062;2023-02-01T13:36:54;3.07;;;1.20;;
17784;SDS011;9016;53.582;10.062;2023-02-01T13:39:45;3.17;;;1.40;;
17784;SDS011;9016;53.582;10.062;2023-02-01T13:42:21;2.47;;;1.20;;
17784;SDS011;9016;53.582;10.062;2023-02-01T13:44:54;2.33;;;1.20;;
17784;SDS011;9016;53.582;10.062;2023-02-01T13:47:26;2.33;;;1.27;;
17784;SDS011;9016;53.582;10.062;2023-02-01T13:49:57;3.00;;;1.20;;
17784;SDS011;9016;53.582;10.062;2023-02-01T13:52:36;6.63;;;1.60;;
17784;SDS011;9016;53.582;10.062;2023-02-01T13:55:27;6.77;;;1.60;;
17784;SDS011;9016;53.582;10.062;2023-02-01T13:58:00;4.50;;;1.73;;
17784;SDS011;9016;53.582;10.062;2023-02-01T14:00:52;4.20;;;1.40;;
17784;SDS011;9016;53.582;10.062;2023-02-01T14:07:18;4.33;;;1.40;;
17784;SDS011;9016;53.582;10.062;2023-02-01T14:09:47;7.33;;;1.90;;
17784;SDS011;9016;53.582;10.062;2023-02-01T14:15:18;6.43;;;2.37;;
17784;SDS011;9016;53.582;10.062;2023-02-01T14:17:52;5.30;;;1.53;;
17784;SDS011;9016;53.582;10.062;2023-02-01T14:23:20;4.97;;;1.70;;
17784;SDS011;9016;53.582;10.062;2023-02-01T14:26:05;6.20;;;1.90;;
17784;SDS011;9016;53.582;10.062;2023-02-01T14:28:46;2.67;;;1.50;;
17784;SDS011;9016;53.582;10.062;2023-02-01T14:34:21;6.37;;;1.70;;
17784;SDS011;9016;53.582;10.062;2023-02-01T14:36:59;5.30;;;1.60;;
17784;SDS011;9016;53.582;10.062;2023-02-01T14:39:36;5.07;;;1.87;;
17784;SDS011;9016;53.582;10.062;2023-02-01T14:42:19;7.57;;;2.17;;
17784;SDS011;9016;53.582;10.062;2023-02-01T14:44:50;8.80;;;2.60;;
17784;SDS011;9016;53.582;10.062;2023-02-01T14:47:26;9.17;;;2.50;;
17784;SDS011;9016;53.582;10.062;2023-02-01T14:49:59;10.57;;;2.73;;
17784;SDS011;9016;53.582;10.062;2023-02-01T14:52:36;6.27;;;2.20;;
17784;SDS011;9016;53.582;10.062;2023-02-01T14:55:12;9.73;;;2.30;;
17784;SDS011;9016;53.582;10.062;2023-02-01T14:57:45;10.77;;;2.20;;
17784;SDS011;9016;53.582;10.062;2023-02-01T15:00:18;8.97;;;2.23;;
17784;SDS011;9016;53.582;10.062;2023-02-01T15:02:49;8.07;;;2.50;;
17784;SDS011;9016;53.582;10.062;2023-02-01T15:08:11;9.83;;;3.10;;
17784;SDS011;9016;53.582;10.062;2023-02-01T15:10:46;8.47;;;2.50;;
17784;SDS011;9016;53.582;10.062;2023-02-01T15:13:18;9.77;;;2.60;;
17784;SDS011;9016;53.582;10.062;2023-02-01T15:16:04;13.50;;;3.07;;
17784;SDS011;9016;53.582;10.062;2023-02-01T15:18:37;13.57;;;3.13;;
17784;SDS011;9016;53.582;10.062;2023-02-01T15:21:06;15.20;;;3.60;;
17784;SDS011;9016;53.582;10.062;2023-02-01T15:24:09;13.40;;;3.30;;
17784;SDS011;9016;53.582;10.062;2023-02-01T15:26:39;12.03;;;3.23;;
17784;SDS011;9016;53.582;10.062;2023-02-01T15:29:11;15.80;;;3.97;;
17784;SDS011;9016;53.582;10.062;2023-02-01T15:31:41;14.90;;;3.90;;
17784;SDS011;9016;53.582;10.062;2023-02-01T15:34:11;12.87;;;3.33;;
17784;SDS011;9016;53.582;10.062;2023-02-01T15:36:40;16.27;;;3.40;;
17784;SDS011;9016;53.582;10.062;2023-02-01T15:39:27;11.93;;;3.40;;
17784;SDS011;9016;53.582;10.062;2023-02-01T15:41:59;14.80;;;3.27;;
17784;SDS011;9016;53.582;10.062;2023-02-01T15:44:40;12.33;;;3.30;;
17784;SDS011;9016;53.582;10.062;2023-02-01T15:47:13;11.57;;;3.13;;
17784;SDS011;9016;53.582;10.062;2023-02-01T15:49:44;13.47;;;3.40;;